sensor_id;sensor_type;location;lat;lon;timestamp;P1;durP1;ratioP1;P2;durP2;ratioP2
60038;SDS011;45916;52.734;6.544;2024-01-10T00:01:45;25.50;;;21.20;;
60038;SDS011;45916;52.734;6.544;2024-01-10T00:04:11;26.33;;;20.73;;
60038;SDS011;45916;52.734;6.544;2024-01-10T00:06:36;28.33;;;22.33;;
60038;SDS011;45916;52.734;6.544;2024-01-10T00:09:02;24.77;;;20.53;;
60038;SDS011;45916;52.734;6.544;2024-01-10T00:11:28;26.03;;;20.50;;
60038;SDS011;45916;52.734;6.544;2024-01-10T00:13:53;28.20;;;21.87;;
60038;SDS011;45916;52.734;6.544;2024-01-10T00:16:25;25.77;;;20.83;;
60038;SDS011;45916;52.734;6.544;2024-01-10T00:18:51;28.93;;;23.60;;
60038;SDS011;45916;52.734;6.544;2024-01-10T00:21:17;28.97;;;22.20;;
60038;SDS011;45916;52.734;6.544;2024-01-10T00:23:43;24.47;;;20.03;;
60038;SDS011;45916;52.734;6.544;2024-01-10T00:26:08;26.70;;;21.47;;
60038;SDS011;45916;52.734;6.544;2024-01-10T00:28:34;28.13;;;21.13;;
60038;SDS011;45916;52.734;6.544;2024-01-10T00:31:00;25.23;;;20.53;;
60038;SDS011;45916;52.734;6.544;2024-01-10T00:33:26;29.43;;;21.60;;
60038;SDS011;45916;52.734;6.544;2024-01-10T00:35:51;27.60;;;22.47;;
60038;SDS011;45916;52.734;6.544;2024-01-10T00:38:17;30.43;;;22.20;;
60038;SDS011;45916;52.734;6.544;2024-01-10T00:40:43;27.35;;;22.15;;
60038;SDS011;45916;52.734;6.544;2024-01-10T00:43:08;29.57;;;22.73;;
60038;SDS011;45916;52.734;6.544;2024-01-10T00:45:34;28.37;;;22.90;;
60038;SDS011;45916;52.734;6.544;2024-01-10T00:47:59;29.93;;;21.23;;
60038;SDS011;45916;52.734;6.544;2024-01-10T00:50:25;28.83;;;21.90;;
60038;SDS011;45916;52.734;6.544;2024-01-10T00:52:51;29.73;;;22.93;;
60038;SDS011;45916;52.734;6.544;2024-01-10T00:55:16;29.80;;;21.60;;
60038;SDS011;45916;52.734;6.544;2024-01-10T00:57:42;29.37;;;22.93;;
60038;SDS011;45916;52.734;6.544;2024-01-10T01:00:08;30.03;;;22.47;;
60038;SDS011;45916;52.734;6.544;2024-01-10T01:02:36;30.25;;;22.08;;
60038;SDS011;45916;52.734;6.544;2024-01-10T01:05:04;27.30;;;21.03;;
60038;SDS011;45916;52.734;6.544;2024-01-10T01:07:31;26.60;;;22.87;;
60038;SDS011;45916;52.734;6.544;2024-01-10T01:09:57;31.00;;;22.10;;
60038;SDS011;45916;52.734;6.544;2024-01-10T01:12:23;31.17;;;22.27;;
60038;SDS011;45916;52.734;6.544;2024-01-10T01:14:49;27.20;;;22.13;;
60038;SDS011;45916;52.734;6.544;2024-01-10T01:17:14;28.33;;;22.23;;
60038;SDS011;45916;52.734;6.544;2024-01-10T01:19:40;30.60;;;23.33;;
60038;SDS011;45916;52.734;6.544;2024-01-10T01:22:06;28.17;;;22.27;;
60038;SDS011;45916;52.734;6.544;2024-01-10T01:24:31;27.90;;;21.20;;
60038;SDS011;45916;52.734;6.544;2024-01-10T01:26:57;27.37;;;20.70;;
60038;SDS011;45916;52.734;6.544;2024-01-10T01:29:23;30.13;;;22.17;;
60038;SDS011;45916;52.734;6.544;2024-01-10T01:31:49;31.20;;;23.17;;
60038;SDS011;45916;52.734;6.544;2024-01-10T01:34:15;28.33;;;21.30;;
60038;SDS011;45916;52.734;6.544;2024-01-10T01:36:41;31.83;;;22.23;;
60038;SDS011;45916;52.734;6.544;2024-01-10T01:39:06;26.97;;;21.63;;
60038;SDS011;45916;52.734;6.544;2024-01-10T01:41:32;31.87;;;21.77;;
60038;SDS011;45916;52.734;6.544;2024-01-10T01:43:57;28.27;;;21.87;;
60038;SDS011;45916;52.734;6.544;2024-01-10T01:46:23;28.73;;;21.63;;
60038;SDS011;45916;52.734;6.544;2024-01-10T01:48:49;30.27;;;22.53;;
60038;SDS011;45916;52.734;6.544;2024-01-10T01:51:15;28.80;;;22.23;;
60038;SDS011;45916;52.734;6.544;2024-01-10T01:53:43;26.40;;;20.53;;
60038;SDS011;45916;52.734;6.544;2024-01-10T01:56:10;28.03;;;22.37;;
60038;SDS011;45916;52.734;6.544;2024-01-10T01:58:37;29.25;;;21.73;;
60038;SDS011;45916;52.734;6.544;2024-01-10T02:01:05;27.50;;;21.13;;
60038;SDS011;45916;52.734;6.544;2024-01-10T02:03:31;30.33;;;21.37;;
60038;SDS011;45916;52.734;6.544;2024-01-10T02:05:58;30.27;;;23.13;;
60038;SDS011;45916;52.734;6.544;2024-01-10T02:08:25;29.17;;;21.80;;
60038;SDS011;45916;52.734;6.544;2024-01-10T02:10:50;29.90;;;22.07;;
60038;SDS011;45916;52.734;6.544;2024-01-10T02:13:16;29.53;;;22.30;;
60038;SDS011;45916;52.734;6.544;2024-01-10T02:15:43;29.03;;;21.57;;
60038;SDS011;45916;52.734;6.544;2024-01-10T02:18:09;26.97;;;21.23;;
60038;SDS011;45916;52.734;6.544;2024-01-10T02:20:39;30.57;;;22.10;;
60038;SDS011;45916;52.734;6.544;2024-01-10T02:23:07;28.35;;;20.35;;
60038;SDS011;45916;52.734;6.544;2024-01-10T02:25:34;27.87;;;21.43;;
60038;SDS011;45916;52.734;6.544;2024-01-10T02:28:00;29.97;;;22.03;;
60038;SDS011;45916;52.734;6.544;2024-01-10T02:30:25;31.67;;;22.63;;
60038;SDS011;45916;52.734;6.544;2024-01-10T02:32:51;25.30;;;20.23;;
60038;SDS011;45916;52.734;6.544;2024-01-10T02:35:17;26.27;;;21.50;;
60038;SDS011;45916;52.734;6.544;2024-01-10T02:37:42;26.67;;;20.83;;
60038;SDS011;45916;52.734;6.544;2024-01-10T02:40:08;32.37;;;21.73;;
60038;SDS011;45916;52.734;6.544;2024-01-10T02:42:34;30.20;;;22.60;;
60038;SDS011;45916;52.734;6.544;2024-01-10T02:45:00;28.70;;;21.57;;
60038;SDS011;45916;52.734;6.544;2024-01-10T02:47:26;28.53;;;19.77;;
60038;SDS011;45916;52.734;6.544;2024-01-10T02:49:53;29.10;;;20.93;;
60038;SDS011;45916;52.734;6.544;2024-01-10T02:52:18;30.07;;;21.90;;
60038;SDS011;45916;52.734;6.544;2024-01-10T02:54:45;26.67;;;20.57;;
60038;SDS011;45916;52.734;6.544;2024-01-10T02:57:10;26.30;;;20.90;;
60038;SDS011;45916;52.734;6.544;2024-01-10T02:59:36;24.57;;;20.30;;
60038;SDS011;45916;52.734;6.544;2024-01-10T03:02:02;24.57;;;20.03;;
60038;SDS011;45916;52.734;6.544;2024-01-10T03:04:28;24.17;;;19.67;;
60038;SDS011;45916;52.734;6.544;2024-01-10T03:06:54;25.63;;;20.03;;
60038;SDS011;45916;52.734;6.544;2024-01-10T03:09:20;28.17;;;20.83;;
60038;SDS011;45916;52.734;6.544;2024-01-10T03:11:45;25.50;;;19.27;;
60038;SDS011;45916;52.734;6.544;2024-01-10T03:14:11;26.63;;;20.30;;
60038;SDS011;45916;52.734;6.544;2024-01-10T03:16:37;28.43;;;20.47;;
60038;SDS011;45916;52.734;6.544;2024-01-10T03:19:03;26.77;;;18.93;;
60038;SDS011;45916;52.734;6.544;2024-01-10T03:21:29;25.53;;;18.30;;
60038;SDS011;45916;52.734;6.544;2024-01-10T03:23:55;28.97;;;20.50;;
60038;SDS011;45916;52.734;6.544;2024-01-10T03:26:22;25.50;;;20.27;;
60038;SDS011;45916;52.734;6.544;2024-01-10T03:28:48;27.00;;;20.63;;
60038;SDS011;45916;52.734;6.544;2024-01-10T03:31:14;28.93;;;20.23;;
60038;SDS011;45916;52.734;6.544;2024-01-10T03:33:40;27.10;;;19.97;;
60038;SDS011;45916;52.734;6.544;2024-01-10T03:36:06;25.60;;;18.73;;
60038;SDS011;45916;52.734;6.544;2024-01-10T03:38:35;30.20;;;22.57;;
60038;SDS011;45916;52.734;6.544;2024-01-10T03:41:00;24.57;;;19.53;;
60038;SDS011;45916;52.734;6.544;2024-01-10T03:43:26;27.60;;;20.47;;
60038;SDS011;45916;52.734;6.544;2024-01-10T03:45:52;33.23;;;20.90;;
60038;SDS011;45916;52.734;6.544;2024-01-10T03:48:17;27.53;;;20.50;;
60038;SDS011;45916;52.734;6.544;2024-01-10T03:50:43;28.63;;;20.50;;
60038;SDS011;45916;52.734;6.544;2024-01-10T03:53:08;29.63;;;21.03;;
60038;SDS011;45916;52.734;6.544;2024-01-10T03:55:34;32.10;;;22.43;;
60038;SDS011;45916;52.734;6.544;2024-01-10T03:58:00;28.17;;;23.17;;
60038;SDS011;45916;52.734;6.544;2024-01-10T04:00:25;26.97;;;20.90;;
60038;SDS011;45916;52.734;6.544;2024-01-10T04:02:51;25.97;;;21.60;;
60038;SDS011;45916;52.734;6.544;2024-01-10T04:05:17;29.10;;;20.23;;
60038;SDS011;45916;52.734;6.544;2024-01-10T04:07:44;27.63;;;21.03;;
60038;SDS011;45916;52.734;6.544;2024-01-10T04:10:10;28.10;;;21.00;;
60038;SDS011;45916;52.734;6.544;2024-01-10T04:12:42;27.70;;;21.20;;
60038;SDS011;45916;52.734;6.544;2024-01-10T04:15:08;24.70;;;20.27;;
60038;SDS011;45916;52.734;6.544;2024-01-10T04:17:35;27.23;;;20.17;;
60038;SDS011;45916;52.734;6.544;2024-01-10T04:20:01;25.50;;;20.53;;
60038;SDS011;45916;52.734;6.544;2024-01-10T04:22:27;25.63;;;20.13;;
60038;SDS011;45916;52.734;6.544;2024-01-10T04:24:53;25.87;;;19.30;;
60038;SDS011;45916;52.734;6.544;2024-01-10T04:27:20;27.23;;;20.17;;
60038;SDS011;45916;52.734;6.544;2024-01-10T04:29:46;26.53;;;19.43;;
60038;SDS011;45916;52.734;6.544;2024-01-10T04:32:12;25.00;;;20.83;;
60038;SDS011;45916;52.734;6.544;2024-01-10T04:34:38;27.70;;;20.47;;
60038;SDS011;45916;52.734;6.544;2024-01-10T04:37:04;22.67;;;19.13;;
60038;SDS011;45916;52.734;6.544;2024-01-10T04:39:29;25.67;;;21.03;;
60038;SDS011;45916;52.734;6.544;2024-01-10T04:41:55;30.00;;;22.57;;
60038;SDS011;45916;52.734;6.544;2024-01-10T04:44:21;31.47;;;22.00;;
60038;SDS011;45916;52.734;6.544;2024-01-10T04:46:46;33.17;;;21.77;;
60038;SDS011;45916;52.734;6.544;2024-01-10T04:49:12;28.37;;;21.10;;
60038;SDS011;45916;52.734;6.544;2024-01-10T04:51:39;30.10;;;21.47;;
60038;SDS011;45916;52.734;6.544;2024-01-10T04:54:04;26.37;;;20.87;;
60038;SDS011;45916;52.734;6.544;2024-01-10T04:56:30;28.03;;;20.07;;
60038;SDS011;45916;52.734;6.544;2024-01-10T04:58:56;25.60;;;20.63;;
60038;SDS011;45916;52.734;6.544;2024-01-10T05:01:21;26.87;;;20.40;;
60038;SDS011;45916;52.734;6.544;2024-01-10T05:03:48;26.57;;;21.07;;
60038;SDS011;45916;52.734;6.544;2024-01-10T05:06:14;27.20;;;19.90;;
60038;SDS011;45916;52.734;6.544;2024-01-10T05:08:40;28.43;;;21.27;;
60038;SDS011;45916;52.734;6.544;2024-01-10T05:11:05;29.93;;;20.77;;
60038;SDS011;45916;52.734;6.544;2024-01-10T05:13:31;27.83;;;20.20;;
60038;SDS011;45916;52.734;6.544;2024-01-10T05:15:57;33.13;;;22.07;;
60038;SDS011;45916;52.734;6.544;2024-01-10T05:18:23;24.03;;;19.87;;
60038;SDS011;45916;52.734;6.544;2024-01-10T05:20:49;27.80;;;19.30;;
60038;SDS011;45916;52.734;6.544;2024-01-10T05:23:15;28.10;;;21.40;;
60038;SDS011;45916;52.734;6.544;2024-01-10T05:25:40;26.17;;;20.70;;
60038;SDS011;45916;52.734;6.544;2024-01-10T05:28:06;26.33;;;21.40;;
60038;SDS011;45916;52.734;6.544;2024-01-10T05:30:32;31.83;;;22.47;;
60038;SDS011;45916;52.734;6.544;2024-01-10T05:32:58;29.23;;;20.37;;
60038;SDS011;45916;52.734;6.544;2024-01-10T05:35:24;27.23;;;21.83;;
60038;SDS011;45916;52.734;6.544;2024-01-10T05:37:51;29.20;;;21.20;;
60038;SDS011;45916;52.734;6.544;2024-01-10T05:40:17;28.57;;;21.63;;
60038;SDS011;45916;52.734;6.544;2024-01-10T05:42:43;25.73;;;19.57;;
60038;SDS011;45916;52.734;6.544;2024-01-10T05:45:09;29.60;;;21.80;;
60038;SDS011;45916;52.734;6.544;2024-01-10T05:47:35;28.20;;;20.83;;
60038;SDS011;45916;52.734;6.544;2024-01-10T05:50:02;27.37;;;21.10;;
60038;SDS011;45916;52.734;6.544;2024-01-10T05:52:31;31.43;;;23.40;;
60038;SDS011;45916;52.734;6.544;2024-01-10T05:54:58;31.17;;;22.43;;
60038;SDS011;45916;52.734;6.544;2024-01-10T05:57:26;31.20;;;22.77;;
60038;SDS011;45916;52.734;6.544;2024-01-10T05:59:52;31.53;;;22.50;;
60038;SDS011;45916;52.734;6.544;2024-01-10T06:02:21;31.53;;;21.83;;
60038;SDS011;45916;52.734;6.544;2024-01-10T06:04:49;30.35;;;24.17;;
60038;SDS011;45916;52.734;6.544;2024-01-10T06:07:15;34.50;;;25.27;;
60038;SDS011;45916;52.734;6.544;2024-01-10T06:09:41;36.33;;;24.13;;
60038;SDS011;45916;52.734;6.544;2024-01-10T06:12:08;32.83;;;24.10;;
60038;SDS011;45916;52.734;6.544;2024-01-10T06:14:34;38.67;;;27.27;;
60038;SDS011;45916;52.734;6.544;2024-01-10T06:17:01;36.73;;;25.80;;
60038;SDS011;45916;52.734;6.544;2024-01-10T06:19:29;35.25;;;24.80;;
60038;SDS011;45916;52.734;6.544;2024-01-10T06:21:56;33.93;;;25.63;;
60038;SDS011;45916;52.734;6.544;2024-01-10T06:24:22;32.63;;;23.70;;
60038;SDS011;45916;52.734;6.544;2024-01-10T06:26:48;35.80;;;23.60;;
60038;SDS011;45916;52.734;6.544;2024-01-10T06:29:14;32.27;;;24.77;;
60038;SDS011;45916;52.734;6.544;2024-01-10T06:31:40;32.03;;;24.10;;
60038;SDS011;45916;52.734;6.544;2024-01-10T06:34:06;33.47;;;25.30;;
60038;SDS011;45916;52.734;6.544;2024-01-10T06:36:32;33.27;;;25.47;;
60038;SDS011;45916;52.734;6.544;2024-01-10T06:38:58;30.83;;;24.40;;
60038;SDS011;45916;52.734;6.544;2024-01-10T06:41:24;34.33;;;24.67;;
60038;SDS011;45916;52.734;6.544;2024-01-10T06:43:53;34.10;;;25.93;;
60038;SDS011;45916;52.734;6.544;2024-01-10T06:46:19;34.33;;;24.47;;
60038;SDS011;45916;52.734;6.544;2024-01-10T06:48:45;31.87;;;25.17;;
60038;SDS011;45916;52.734;6.544;2024-01-10T06:51:14;33.10;;;25.37;;
60038;SDS011;45916;52.734;6.544;2024-01-10T06:53:40;31.93;;;23.00;;
60038;SDS011;45916;52.734;6.544;2024-01-10T06:56:07;30.40;;;23.37;;
60038;SDS011;45916;52.734;6.544;2024-01-10T06:58:34;34.65;;;24.70;;
60038;SDS011;45916;52.734;6.544;2024-01-10T07:01:00;34.80;;;25.43;;
60038;SDS011;45916;52.734;6.544;2024-01-10T07:03:26;35.07;;;26.40;;
60038;SDS011;45916;52.734;6.544;2024-01-10T07:05:52;33.70;;;23.93;;
60038;SDS011;45916;52.734;6.544;2024-01-10T07:08:17;34.50;;;25.50;;
60038;SDS011;45916;52.734;6.544;2024-01-10T07:10:43;31.93;;;24.87;;
60038;SDS011;45916;52.734;6.544;2024-01-10T07:13:09;31.07;;;25.60;;
60038;SDS011;45916;52.734;6.544;2024-01-10T07:15:36;36.20;;;26.97;;
60038;SDS011;45916;52.734;6.544;2024-01-10T07:18:03;35.47;;;26.33;;
60038;SDS011;45916;52.734;6.544;2024-01-10T07:20:29;33.83;;;26.17;;
60038;SDS011;45916;52.734;6.544;2024-01-10T07:22:55;34.60;;;25.80;;
60038;SDS011;45916;52.734;6.544;2024-01-10T07:25:21;32.47;;;25.27;;
60038;SDS011;45916;52.734;6.544;2024-01-10T07:27:50;34.43;;;26.33;;
60038;SDS011;45916;52.734;6.544;2024-01-10T07:30:18;42.65;;;27.45;;
60038;SDS011;45916;52.734;6.544;2024-01-10T07:32:44;35.53;;;27.20;;
60038;SDS011;45916;52.734;6.544;2024-01-10T07:35:11;33.30;;;26.80;;
60038;SDS011;45916;52.734;6.544;2024-01-10T07:37:39;34.53;;;26.80;;
60038;SDS011;45916;52.734;6.544;2024-01-10T07:40:05;37.30;;;25.73;;
60038;SDS011;45916;52.734;6.544;2024-01-10T07:42:36;32.63;;;24.83;;
60038;SDS011;45916;52.734;6.544;2024-01-10T07:45:02;34.33;;;25.87;;
60038;SDS011;45916;52.734;6.544;2024-01-10T07:47:33;35.97;;;26.33;;
60038;SDS011;45916;52.734;6.544;2024-01-10T07:50:03;34.13;;;25.77;;
60038;SDS011;45916;52.734;6.544;2024-01-10T07:52:33;33.57;;;24.67;;
60038;SDS011;45916;52.734;6.544;2024-01-10T07:54:59;31.33;;;24.87;;
60038;SDS011;45916;52.734;6.544;2024-01-10T07:57:26;38.07;;;25.30;;
60038;SDS011;45916;52.734;6.544;2024-01-10T07:59:52;29.53;;;24.27;;
60038;SDS011;45916;52.734;6.544;2024-01-10T08:02:18;31.03;;;24.50;;
60038;SDS011;45916;52.734;6.544;2024-01-10T08:04:44;31.27;;;26.00;;
60038;SDS011;45916;52.734;6.544;2024-01-10T08:07:10;29.27;;;22.57;;
60038;SDS011;45916;52.734;6.544;2024-01-10T08:09:36;32.47;;;25.30;;
60038;SDS011;45916;52.734;6.544;2024-01-10T08:12:02;31.47;;;23.90;;
60038;SDS011;45916;52.734;6.544;2024-01-10T08:14:28;28.50;;;23.30;;
60038;SDS011;45916;52.734;6.544;2024-01-10T08:16:54;28.97;;;23.43;;
60038;SDS011;45916;52.734;6.544;2024-01-10T08:19:23;32.23;;;22.13;;
60038;SDS011;45916;52.734;6.544;2024-01-10T08:21:51;32.50;;;23.45;;
60038;SDS011;45916;52.734;6.544;2024-01-10T08:24:20;27.70;;;20.57;;
60038;SDS011;45916;52.734;6.544;2024-01-10T08:26:48;25.00;;;20.57;;
60038;SDS011;45916;52.734;6.544;2024-01-10T08:29:17;26.37;;;19.23;;
60038;SDS011;45916;52.734;6.544;2024-01-10T08:31:44;24.93;;;20.67;;
60038;SDS011;45916;52.734;6.544;2024-01-10T08:34:10;25.53;;;18.70;;
60038;SDS011;45916;52.734;6.544;2024-01-10T08:36:36;23.13;;;18.42;;
60038;SDS011;45916;52.734;6.544;2024-01-10T08:39:03;24.13;;;18.67;;
60038;SDS011;45916;52.734;6.544;2024-01-10T08:41:29;23.30;;;18.05;;
60038;SDS011;45916;52.734;6.544;2024-01-10T08:43:56;20.77;;;17.67;;
60038;SDS011;45916;52.734;6.544;2024-01-10T08:46:22;20.85;;;17.20;;
60038;SDS011;45916;52.734;6.544;2024-01-10T08:48:51;22.02;;;17.17;;
60038;SDS011;45916;52.734;6.544;2024-01-10T08:51:16;19.85;;;16.30;;
60038;SDS011;45916;52.734;6.544;2024-01-10T08:53:42;20.13;;;17.58;;
60038;SDS011;45916;52.734;6.544;2024-01-10T08:56:09;19.45;;;15.95;;
60038;SDS011;45916;52.734;6.544;2024-01-10T08:58:35;19.75;;;16.85;;
60038;SDS011;45916;52.734;6.544;2024-01-10T09:01:01;18.10;;;16.05;;
60038;SDS011;45916;52.734;6.544;2024-01-10T09:03:29;18.73;;;16.02;;
60038;SDS011;45916;52.734;6.544;2024-01-10T09:05:55;17.90;;;15.50;;
60038;SDS011;45916;52.734;6.544;2024-01-10T09:08:20;16.15;;;14.30;;
60038;SDS011;45916;52.734;6.544;2024-01-10T09:10:46;17.73;;;15.13;;
60038;SDS011;45916;52.734;6.544;2024-01-10T09:13:14;18.13;;;14.97;;
60038;SDS011;45916;52.734;6.544;2024-01-10T09:15:40;17.45;;;15.48;;
60038;SDS011;45916;52.734;6.544;2024-01-10T09:18:06;18.45;;;15.65;;
60038;SDS011;45916;52.734;6.544;2024-01-10T09:20:32;19.30;;;15.48;;
60038;SDS011;45916;52.734;6.544;2024-01-10T09:22:58;15.50;;;13.93;;
60038;SDS011;45916;52.734;6.544;2024-01-10T09:25:25;16.50;;;14.65;;
60038;SDS011;45916;52.734;6.544;2024-01-10T09:27:51;17.65;;;14.85;;
60038;SDS011;45916;52.734;6.544;2024-01-10T09:30:16;18.60;;;15.35;;
60038;SDS011;45916;52.734;6.544;2024-01-10T09:32:43;15.65;;;13.98;;
60038;SDS011;45916;52.734;6.544;2024-01-10T09:35:09;16.08;;;14.38;;
60038;SDS011;45916;52.734;6.544;2024-01-10T09:37:35;16.48;;;14.30;;
60038;SDS011;45916;52.734;6.544;2024-01-10T09:40:01;15.63;;;13.95;;
60038;SDS011;45916;52.734;6.544;2024-01-10T09:42:27;16.83;;;14.90;;
60038;SDS011;45916;52.734;6.544;2024-01-10T09:44:56;16.67;;;14.93;;
60038;SDS011;45916;52.734;6.544;2024-01-10T09:47:22;15.48;;;13.63;;
60038;SDS011;45916;52.734;6.544;2024-01-10T09:49:49;17.45;;;13.75;;
60038;SDS011;45916;52.734;6.544;2024-01-10T09:52:24;16.13;;;14.40;;
60038;SDS011;45916;52.734;6.544;2024-01-10T09:54:55;17.20;;;15.35;;
60038;SDS011;45916;52.734;6.544;2024-01-10T09:57:22;14.70;;;13.18;;
60038;SDS011;45916;52.734;6.544;2024-01-10T09:59:50;15.93;;;13.68;;
60038;SDS011;45916;52.734;6.544;2024-01-10T10:02:16;16.08;;;14.38;;
60038;SDS011;45916;52.734;6.544;2024-01-10T10:04:45;16.10;;;13.18;;
60038;SDS011;45916;52.734;6.544;2024-01-10T10:07:16;15.57;;;14.05;;
60038;SDS011;45916;52.734;6.544;2024-01-10T10:09:41;17.35;;;14.85;;
60038;SDS011;45916;52.734;6.544;2024-01-10T10:12:07;16.10;;;13.55;;
60038;SDS011;45916;52.734;6.544;2024-01-10T10:14:33;15.68;;;14.07;;
60038;SDS011;45916;52.734;6.544;2024-01-10T10:17:14;16.30;;;14.60;;
60038;SDS011;45916;52.734;6.544;2024-01-10T10:19:42;15.18;;;13.60;;
60038;SDS011;45916;52.734;6.544;2024-01-10T10:22:09;16.42;;;14.38;;
60038;SDS011;45916;52.734;6.544;2024-01-10T10:24:36;17.33;;;14.50;;
60038;SDS011;45916;52.734;6.544;2024-01-10T10:27:11;16.42;;;14.07;;
60038;SDS011;45916;52.734;6.544;2024-01-10T10:29:38;15.18;;;13.10;;
60038;SDS011;45916;52.734;6.544;2024-01-10T10:32:05;15.10;;;13.43;;
60038;SDS011;45916;52.734;6.544;2024-01-10T10:34:31;17.90;;;14.38;;
60038;SDS011;45916;52.734;6.544;2024-01-10T10:37:00;15.73;;;13.23;;
60038;SDS011;45916;52.734;6.544;2024-01-10T10:39:27;17.58;;;13.93;;
60038;SDS011;45916;52.734;6.544;2024-01-10T10:41:53;16.33;;;14.55;;
60038;SDS011;45916;52.734;6.544;2024-01-10T10:44:21;18.13;;;14.10;;
60038;SDS011;45916;52.734;6.544;2024-01-10T10:46:49;16.48;;;13.68;;
60038;SDS011;45916;52.734;6.544;2024-01-10T10:49:18;15.60;;;13.85;;
60038;SDS011;45916;52.734;6.544;2024-01-10T10:51:50;16.02;;;13.75;;
60038;SDS011;45916;52.734;6.544;2024-01-10T10:54:16;15.82;;;12.95;;
60038;SDS011;45916;52.734;6.544;2024-01-10T10:56:44;15.25;;;12.85;;
60038;SDS011;45916;52.734;6.544;2024-01-10T10:59:11;16.52;;;13.95;;
60038;SDS011;45916;52.734;6.544;2024-01-10T11:01:38;15.82;;;12.80;;
60038;SDS011;45916;52.734;6.544;2024-01-10T11:04:05;15.85;;;12.55;;
60038;SDS011;45916;52.734;6.544;2024-01-10T11:06:31;15.07;;;13.27;;
60038;SDS011;45916;52.734;6.544;2024-01-10T11:09:02;14.88;;;12.80;;
60038;SDS011;45916;52.734;6.544;2024-01-10T11:11:50;13.32;;;11.93;;
60038;SDS011;45916;52.734;6.544;2024-01-10T11:23:02;13.60;;;10.45;;
60038;SDS011;45916;52.734;6.544;2024-01-10T11:25:29;15.52;;;11.32;;
60038;SDS011;45916;52.734;6.544;2024-01-10T11:27:55;13.52;;;10.32;;
60038;SDS011;45916;52.734;6.544;2024-01-10T11:30:34;14.88;;;10.85;;
60038;SDS011;45916;52.734;6.544;2024-01-10T11:33:01;16.15;;;11.43;;
60038;SDS011;45916;52.734;6.544;2024-01-10T11:35:42;14.00;;;11.48;;
60038;SDS011;45916;52.734;6.544;2024-01-10T11:41:23;13.13;;;10.07;;
60038;SDS011;45916;52.734;6.544;2024-01-10T11:46:49;15.13;;;11.30;;
60038;SDS011;45916;52.734;6.544;2024-01-10T11:49:17;14.75;;;11.35;;
60038;SDS011;45916;52.734;6.544;2024-01-10T11:51:44;14.55;;;11.75;;
60038;SDS011;45916;52.734;6.544;2024-01-10T11:54:11;14.27;;;11.60;;
60038;SDS011;45916;52.734;6.544;2024-01-10T11:56:41;17.85;;;11.02;;
60038;SDS011;45916;52.734;6.544;2024-01-10T11:59:11;13.48;;;10.00;;
60038;SDS011;45916;52.734;6.544;2024-01-10T12:01:40;15.48;;;10.25;;
60038;SDS011;45916;52.734;6.544;2024-01-10T12:04:07;14.25;;;10.95;;
60038;SDS011;45916;52.734;6.544;2024-01-10T12:06:35;17.17;;;11.63;;
60038;SDS011;45916;52.734;6.544;2024-01-10T12:09:01;18.23;;;12.15;;
60038;SDS011;45916;52.734;6.544;2024-01-10T12:11:30;16.33;;;11.30;;
60038;SDS011;45916;52.734;6.544;2024-01-10T12:13:57;14.98;;;10.13;;
60038;SDS011;45916;52.734;6.544;2024-01-10T12:16:23;14.38;;;11.20;;
60038;SDS011;45916;52.734;6.544;2024-01-10T12:18:49;13.90;;;9.63;;
60038;SDS011;45916;52.734;6.544;2024-01-10T12:21:16;13.32;;;11.07;;
60038;SDS011;45916;52.734;6.544;2024-01-10T12:23:42;16.17;;;9.75;;
60038;SDS011;45916;52.734;6.544;2024-01-10T12:26:09;14.00;;;9.88;;
60038;SDS011;45916;52.734;6.544;2024-01-10T12:28:38;15.55;;;9.80;;
60038;SDS011;45916;52.734;6.544;2024-01-10T12:31:18;15.43;;;9.82;;
60038;SDS011;45916;52.734;6.544;2024-01-10T12:33:43;15.32;;;10.68;;
60038;SDS011;45916;52.734;6.544;2024-01-10T12:36:09;12.88;;;9.68;;
60038;SDS011;45916;52.734;6.544;2024-01-10T12:38:36;13.00;;;10.07;;
60038;SDS011;45916;52.734;6.544;2024-01-10T12:41:04;15.68;;;10.70;;
60038;SDS011;45916;52.734;6.544;2024-01-10T12:43:30;13.77;;;9.77;;
60038;SDS011;45916;52.734;6.544;2024-01-10T12:46:06;16.48;;;10.32;;
60038;SDS011;45916;52.734;6.544;2024-01-10T12:48:33;14.98;;;10.25;;
60038;SDS011;45916;52.734;6.544;2024-01-10T12:51:06;16.48;;;11.10;;
60038;SDS011;45916;52.734;6.544;2024-01-10T12:53:36;13.15;;;9.52;;
60038;SDS011;45916;52.734;6.544;2024-01-10T12:56:04;15.88;;;10.57;;
60038;SDS011;45916;52.734;6.544;2024-01-10T12:58:31;17.48;;;9.98;;
60038;SDS011;45916;52.734;6.544;2024-01-10T13:00:57;15.00;;;10.38;;
60038;SDS011;45916;52.734;6.544;2024-01-10T13:03:23;15.18;;;10.50;;
60038;SDS011;45916;52.734;6.544;2024-01-10T13:05:50;14.40;;;8.90;;
60038;SDS011;45916;52.734;6.544;2024-01-10T13:08:16;15.48;;;10.02;;
60038;SDS011;45916;52.734;6.544;2024-01-10T13:10:44;14.30;;;9.80;;
60038;SDS011;45916;52.734;6.544;2024-01-10T13:13:10;14.40;;;9.30;;
60038;SDS011;45916;52.734;6.544;2024-01-10T13:15:37;13.40;;;9.40;;
60038;SDS011;45916;52.734;6.544;2024-01-10T13:18:03;13.80;;;9.15;;
60038;SDS011;45916;52.734;6.544;2024-01-10T13:20:29;12.80;;;9.25;;
60038;SDS011;45916;52.734;6.544;2024-01-10T13:22:54;13.68;;;8.93;;
60038;SDS011;45916;52.734;6.544;2024-01-10T13:25:20;14.23;;;9.35;;
60038;SDS011;45916;52.734;6.544;2024-01-10T13:27:51;13.70;;;9.38;;
60038;SDS011;45916;52.734;6.544;2024-01-10T13:30:18;15.20;;;9.40;;
60038;SDS011;45916;52.734;6.544;2024-01-10T13:32:44;12.80;;;8.88;;
60038;SDS011;45916;52.734;6.544;2024-01-10T13:35:13;15.73;;;9.95;;
60038;SDS011;45916;52.734;6.544;2024-01-10T13:37:41;12.10;;;8.48;;
60038;SDS011;45916;52.734;6.544;2024-01-10T13:40:10;14.10;;;8.80;;
60038;SDS011;45916;52.734;6.544;2024-01-10T13:42:39;13.95;;;9.27;;
60038;SDS011;45916;52.734;6.544;2024-01-10T13:45:05;13.82;;;9.32;;
60038;SDS011;45916;52.734;6.544;2024-01-10T13:47:32;14.27;;;9.57;;
60038;SDS011;45916;52.734;6.544;2024-01-10T13:49:59;13.50;;;9.38;;
60038;SDS011;45916;52.734;6.544;2024-01-10T13:52:25;15.38;;;9.77;;
60038;SDS011;45916;52.734;6.544;2024-01-10T13:54:50;16.27;;;9.77;;
60038;SDS011;45916;52.734;6.544;2024-01-10T13:57:17;15.27;;;10.32;;
60038;SDS011;45916;52.734;6.544;2024-01-10T13:59:43;15.18;;;10.73;;
60038;SDS011;45916;52.734;6.544;2024-01-10T14:02:09;14.98;;;10.18;;
60038;SDS011;45916;52.734;6.544;2024-01-10T14:04:35;14.45;;;9.88;;
60038;SDS011;45916;52.734;6.544;2024-01-10T14:07:01;13.55;;;9.13;;
60038;SDS011;45916;52.734;6.544;2024-01-10T14:09:28;12.50;;;9.57;;
60038;SDS011;45916;52.734;6.544;2024-01-10T14:11:55;14.38;;;9.38;;
60038;SDS011;45916;52.734;6.544;2024-01-10T14:14:20;13.05;;;8.93;;
60038;SDS011;45916;52.734;6.544;2024-01-10T14:16:46;14.38;;;9.63;;
60038;SDS011;45916;52.734;6.544;2024-01-10T14:19:12;13.80;;;8.85;;
60038;SDS011;45916;52.734;6.544;2024-01-10T14:21:37;13.50;;;9.00;;
60038;SDS011;45916;52.734;6.544;2024-01-10T14:24:03;13.10;;;9.50;;
60038;SDS011;45916;52.734;6.544;2024-01-10T14:26:29;15.80;;;10.00;;
60038;SDS011;45916;52.734;6.544;2024-01-10T14:28:55;12.95;;;9.25;;
60038;SDS011;45916;52.734;6.544;2024-01-10T14:31:22;13.95;;;10.05;;
60038;SDS011;45916;52.734;6.544;2024-01-10T14:33:48;12.70;;;8.93;;
60038;SDS011;45916;52.734;6.544;2024-01-10T14:36:13;13.77;;;9.75;;